Time;durP1;ratioP1;P1;durP2;ratioP2;P2;SDS_P1;SDS_P2;PMS_P1;PMS_P2;Temp;Humidity;BMP_temperature;BMP_pressure;BME280_temperature;BME280_humidity;BME280_pressure;Samples;Min_cycle;Max_cycle;Signal;HPM_P1;HPM_P2
2023/08/25 00:01:12;;;;;;;3.97;2.25;;;;;;;24.59;65.52;99530.84;4991582;28;20037;-95
2023/08/25 00:03:38;;;;;;;4.80;3.35;;;;;;;24.40;64.97;99474.72;4990529;28;20064;-95
2023/08/25 00:06:03;;;;;;;5.50;3.10;;;;;;;24.30;65.31;99498.81;4993037;28;20542;-93
2023/08/25 00:08:29;;;;;;;3.83;3.05;;;;;;;24.57;65.86;99545.38;4989586;28;20052;-94
2023/08/25 00:10:55;;;;;;;5.53;2.35;;;;;;;24.33;65.92;99524.69;4993374;28;20034;-92
2023/08/25 00:13:20;;;;;;;2.97;2.15;;;;;;;24.46;65.93;99535.41;4996315;28;20046;-94
2023/08/25 00:15:46;;;;;;;7.75;4.32;;;;;;;24.67;65.84;99571.56;4996823;28;20038;-94
2023/08/25 00:18:11;;;;;;;3.25;2.67;;;;;;;24.54;65.69;99538.34;4995437;28;20038;-93
2023/08/25 00:20:37;;;;;;;4.25;2.42;;;;;;;24.39;65.93;99512.56;4995965;28;20578;-91
2023/08/25 00:23:03;;;;;;;4.05;2.33;;;;;;;24.69;65.59;99555.25;5012066;28;20037;-91
2023/08/25 00:25:30;;;;;;;6.93;2.85;;;;;;;24.37;65.33;99501.03;4994955;28;20087;-92
2023/08/25 00:27:56;;;;;;;3.72;2.35;;;;;;;24.51;65.62;99538.59;4995224;28;20081;-90
2023/08/25 00:30:22;;;;;;;6.50;3.45;;;;;;;24.40;64.87;99528.63;5013201;28;20557;-91
2023/08/25 00:32:47;;;;;;;6.47;2.47;;;;;;;24.36;65.24;99535.25;4993916;28;20030;-93
2023/08/25 00:35:13;;;;;;;5.15;2.25;;;;;;;24.10;65.55;99513.78;4994675;28;20030;-93
2023/08/25 00:37:38;;;;;;;4.63;2.97;;;;;;;24.35;65.13;99551.53;4996083;28;20503;-95
2023/08/25 00:40:04;;;;;;;4.63;2.65;;;;;;;24.29;65.26;99544.75;5013708;28;20095;-96
2023/08/25 00:42:29;;;;;;;5.93;2.78;;;;;;;24.25;65.37;99540.53;4994946;28;20076;-95
2023/08/25 00:44:55;;;;;;;10.25;2.92;;;;;;;24.42;64.69;99548.25;4994890;28;20041;-95
2023/08/25 00:47:21;;;;;;;6.40;3.10;;;;;;;24.39;64.49;99566.47;4995126;28;20037;-94
2023/08/25 00:49:48;;;;;;;4.05;2.42;;;;;;;24.39;64.30;99561.97;4995486;28;20076;-95
2023/08/25 00:52:16;;;;;;;4.57;2.25;;;;;;;24.28;64.64;99556.50;5012834;28;20034;-93
2023/08/25 00:54:44;;;;;;;3.45;2.08;;;;;;;24.03;65.05;99527.81;4991179;28;20034;-94
2023/08/25 00:57:10;;;;;;;4.57;2.75;;;;;;;24.17;64.45;99543.81;4995398;28;20034;-92
2023/08/25 00:59:36;;;;;;;4.38;2.90;;;;;;;24.23;64.37;99547.91;4980943;28;20416;-93
2023/08/25 01:02:03;;;;;;;5.10;2.65;;;;;;;24.40;63.77;99565.50;4998584;28;20042;-93
2023/08/25 01:04:28;;;;;;;3.03;1.60;;;;;;;24.30;63.53;99549.16;4992087;28;20057;-94
2023/08/25 01:06:54;;;;;;;12.52;2.38;;;;;;;24.26;64.06;99556.59;4975765;28;20042;-92
2023/08/25 01:09:21;;;;;;;4.80;2.55;;;;;;;24.22;64.38;99543.47;4975612;28;20474;-92
2023/08/25 01:12:08;;;;;;;3.30;1.90;;;;;;;24.17;64.14;99524.94;4980596;28;20160;-94
2023/08/25 01:14:58;;;;;;;3.13;2.38;;;;;;;24.38;64.16;99578.25;4994441;28;20099;-93
2023/08/25 01:17:38;;;;;;;4.50;2.58;;;;;;;24.54;63.86;99581.50;4975877;28;20031;-93
2023/08/25 01:20:07;;;;;;;3.65;2.33;;;;;;;24.21;63.94;99563.31;5011438;28;20203;-95
2023/08/25 01:22:58;;;;;;;3.78;2.35;;;;;;;24.40;63.94;99598.69;4994154;28;20064;-93
2023/08/25 01:25:28;;;;;;;6.28;2.00;;;;;;;24.28;64.39;99575.34;4994522;28;20045;-93
2023/08/25 01:27:58;;;;;;;4.63;2.47;;;;;;;24.38;64.37;99562.94;4975389;28;20045;-93
2023/08/25 01:30:27;;;;;;;7.78;3.55;;;;;;;23.99;64.99;99546.03;4992614;28;20039;-93
2023/08/25 01:32:54;;;;;;;4.22;2.40;;;;;;;23.57;65.59;99515.81;4996881;28;20128;-94
2023/08/25 01:35:39;;;;;;;4.55;2.38;;;;;;;24.07;65.18;99591.28;4994184;28;20042;-93
2023/08/25 01:38:16;;;;;;;5.00;2.67;;;;;;;23.86;65.28;99564.06;4961814;28;20508;-94
2023/08/25 01:41:16;;;;;;;3.50;1.70;;;;;;;24.10;65.60;99588.38;5012355;28;20029;-93
2023/08/25 01:43:46;;;;;;;4.55;2.10;;;;;;;23.83;65.65;99561.56;4991441;28;20030;-94
2023/08/25 01:46:15;;;;;;;4.68;2.35;;;;;;;23.73;65.95;99572.13;4995332;28;20040;-94
2023/08/25 01:48:43;;;;;;;4.25;3.08;;;;;;;23.38;66.32;99518.97;5011110;28;20104;-94
2023/08/25 01:51:10;;;;;;;4.82;2.72;;;;;;;23.80;66.25;99577.94;5011822;28;20121;-93
2023/08/25 01:53:35;;;;;;;4.80;3.42;;;;;;;23.72;66.36;99582.03;4993413;28;20034;-94
2023/08/25 01:56:01;;;;;;;6.22;3.33;;;;;;;23.66;66.33;99557.38;5009895;28;20042;-92
2023/08/25 01:58:28;;;;;;;4.90;3.53;;;;;;;23.80;66.04;99576.09;4993853;28;20036;-93
2023/08/25 02:00:53;;;;;;;8.55;4.45;;;;;;;23.75;66.71;99587.19;4993438;28;20042;-93
2023/08/25 02:03:18;;;;;;;5.38;2.60;;;;;;;23.35;67.71;99549.66;4992419;28;20417;-95
2023/08/25 02:05:44;;;;;;;3.33;2.53;;;;;;;23.68;67.44;99574.28;4994048;28;20092;-92
2023/08/25 02:08:09;;;;;;;5.10;4.25;;;;;;;23.43;67.93;99554.50;5011314;28;20034;-93
2023/08/25 02:10:35;;;;;;;4.85;3.28;;;;;;;23.63;68.47;99580.00;4992794;28;20516;-93
2023/08/25 02:13:00;;;;;;;6.63;3.58;;;;;;;23.50;69.27;99596.16;5010051;28;20034;-92
2023/08/25 02:15:26;;;;;;;4.30;3.20;;;;;;;23.45;70.27;99597.44;4994455;28;20030;-95
2023/08/25 02:17:52;;;;;;;4.22;3.38;;;;;;;23.24;70.23;99581.84;4994406;28;20133;-96
2023/08/25 02:20:18;;;;;;;4.40;3.13;;;;;;;23.38;70.25;99594.34;4995101;28;20037;-94
2023/08/25 02:22:44;;;;;;;6.70;3.47;;;;;;;23.33;69.86;99586.56;5012063;28;20037;-92
2023/08/25 02:25:09;;;;;;;5.50;2.78;;;;;;;23.18;70.50;99591.19;4977209;28;20480;-92
2023/08/25 02:27:35;;;;;;;4.13;2.88;;;;;;;23.26;69.66;99573.66;4991651;28;20222;-93
2023/08/25 02:30:00;;;;;;;4.20;3.28;;;;;;;23.29;70.26;99587.75;4981637;28;20046;-93
2023/08/25 02:32:26;;;;;;;7.65;3.55;;;;;;;23.12;70.76;99586.22;4992613;28;20532;-93
2023/08/25 02:34:51;;;;;;;7.97;4.82;;;;;;;23.34;70.76;99603.56;4991793;28;20100;-95
2023/08/25 02:37:17;;;;;;;9.43;3.85;;;;;;;23.31;70.35;99612.75;4993246;28;20348;-93
2023/08/25 02:39:42;;;;;;;9.25;5.15;;;;;;;22.99;70.41;99561.97;4993681;28;20100;-93
2023/08/25 02:42:07;;;;;;;7.25;4.68;;;;;;;22.97;70.98;99574.69;4993175;28;20045;-92
2023/08/25 02:44:33;;;;;;;5.57;3.83;;;;;;;23.23;70.83;99597.13;4989691;28;20119;-95
2023/08/25 02:46:59;;;;;;;6.60;3.97;;;;;;;23.42;70.32;99617.38;4989166;28;20042;-95
2023/08/25 02:49:25;;;;;;;5.97;4.88;;;;;;;23.27;69.96;99580.78;4990381;28;20034;-93
2023/08/25 02:51:50;;;;;;;5.43;3.30;;;;;;;23.38;70.14;99608.63;4990182;28;20033;-94
2023/08/25 02:54:16;;;;;;;5.90;3.42;;;;;;;23.30;70.64;99618.22;4990446;28;20038;-94
2023/08/25 02:56:41;;;;;;;5.07;3.05;;;;;;;23.23;70.64;99607.00;4993569;28;20037;-94
2023/08/25 02:59:07;;;;;;;9.35;5.03;;;;;;;23.29;70.44;99608.44;4994750;28;20140;-96
2023/08/25 03:01:33;;;;;;;5.15;3.33;;;;;;;23.12;70.33;99593.44;4993819;28;20492;-92
2023/08/25 03:03:58;;;;;;;4.95;3.22;;;;;;;23.06;71.03;99626.97;5010879;28;20028;-91
2023/08/25 03:06:24;;;;;;;6.18;3.75;;;;;;;23.07;70.84;99620.63;4990979;28;20041;-90
2023/08/25 03:08:49;;;;;;;7.22;4.40;;;;;;;22.92;71.09;99601.00;5010385;28;20037;-91
2023/08/25 03:11:15;;;;;;;4.72;3.15;;;;;;;23.14;71.16;99643.50;4992594;28;20088;-95
2023/08/25 03:13:40;;;;;;;4.45;3.10;;;;;;;22.85;71.05;99597.03;4994435;28;20030;-92
2023/08/25 03:16:07;;;;;;;4.43;2.50;;;;;;;22.71;71.34;99590.75;4992008;28;20453;-92
2023/08/25 03:18:33;;;;;;;7.53;4.88;;;;;;;22.88;71.14;99616.50;4986304;28;20547;-92
2023/08/25 03:20:59;;;;;;;3.92;3.05;;;;;;;22.92;71.22;99619.84;4991192;28;20508;-91
2023/08/25 03:23:24;;;;;;;8.27;4.22;;;;;;;22.76;71.12;99597.66;5006349;28;20064;-94
2023/08/25 03:25:50;;;;;;;4.70;2.45;;;;;;;22.65;71.25;99599.22;4992968;28;20060;-92
2023/08/25 03:28:15;;;;;;;5.40;3.15;;;;;;;22.73;71.70;99627.44;4991876;28;20040;-94
2023/08/25 03:30:41;;;;;;;5.60;2.97;;;;;;;22.98;71.58;99649.00;4991897;28;20038;-95
2023/08/25 03:33:06;;;;;;;6.88;3.70;;;;;;;22.79;70.81;99602.81;4993516;28;20037;-92
2023/08/25 03:35:34;;;;;;;9.18;5.30;;;;;;;22.66;71.84;99602.75;4992411;28;20034;-93
2023/08/25 03:37:59;;;;;;;6.32;4.10;;;;;;;22.71;71.82;99625.69;4992362;28;20160;-92
2023/08/25 03:40:25;;;;;;;7.82;4.57;;;;;;;22.67;72.33;99640.28;4992560;28;20173;-93
2023/08/25 03:42:50;;;;;;;5.57;5.00;;;;;;;22.63;72.43;99641.47;5009001;28;20500;-89
2023/08/25 03:45:16;;;;;;;8.35;3.15;;;;;;;22.47;72.45;99608.50;4992517;28;20045;-92
2023/08/25 03:47:42;;;;;;;11.90;4.93;;;;;;;22.78;72.27;99644.09;5012331;28;20084;-89
2023/08/25 03:50:07;;;;;;;6.05;3.63;;;;;;;22.69;72.85;99638.38;4995702;28;20087;-91
2023/08/25 03:52:33;;;;;;;7.20;4.90;;;;;;;22.73;72.63;99628.28;4995796;28;20256;-91
2023/08/25 03:54:58;;;;;;;5.38;3.20;;;;;;;22.57;72.17;99579.19;4996097;28;20125;-91
2023/08/25 03:57:24;;;;;;;7.15;4.03;;;;;;;22.85;72.34;99621.22;4995125;28;20034;-91
2023/08/25 03:59:49;;;;;;;5.93;4.13;;;;;;;22.89;71.99;99622.72;4995725;28;20128;-91
2023/08/25 04:02:15;;;;;;;5.47;2.83;;;;;;;22.88;72.12;99632.63;4994260;28;20440;-90
2023/08/25 04:04:40;;;;;;;12.48;3.03;;;;;;;22.78;72.17;99617.22;5002557;28;20083;-90
2023/08/25 04:07:06;;;;;;;4.90;3.00;;;;;;;22.93;72.30;99655.69;5006602;28;20105;-90
2023/08/25 04:09:31;;;;;;;9.77;4.82;;;;;;;22.44;72.93;99587.22;4977105;28;20112;-95
2023/08/25 04:12:04;;;;;;;7.43;3.58;;;;;;;22.36;72.85;99566.22;5002765;28;20092;-96
2023/08/25 04:14:30;;;;;;;6.25;4.43;;;;;;;22.58;72.79;99603.28;4995092;28;20484;-96
2023/08/25 04:16:56;;;;;;;6.45;3.92;;;;;;;22.41;73.49;99595.47;4980955;28;20121;-89
2023/08/25 04:19:21;;;;;;;6.88;4.18;;;;;;;22.39;73.81;99589.34;5008263;28;20477;-91
2023/08/25 04:21:48;;;;;;;5.03;3.50;;;;;;;22.75;74.23;99653.22;4988981;28;20022;-94
2023/08/25 04:24:14;;;;;;;6.03;4.03;;;;;;;22.11;75.61;99600.03;4995196;28;20565;-94
2023/08/25 04:26:39;;;;;;;7.30;4.43;;;;;;;22.75;75.08;99650.53;4996629;28;20109;-96
2023/08/25 04:29:06;;;;;;;14.13;7.40;;;;;;;22.66;74.35;99611.72;4989853;28;20426;-92
2023/08/25 04:31:32;;;;;;;13.23;5.88;;;;;;;22.61;75.12;99603.06;5017723;28;20050;-96
2023/08/25 04:33:57;;;;;;;7.90;6.05;;;;;;;22.92;74.74;99633.28;4997846;28;20030;-95
2023/08/25 04:36:24;;;;;;;15.75;6.47;;;;;;;22.91;74.33;99625.31;4995331;28;20026;-91
2023/08/25 04:38:49;;;;;;;9.35;6.05;;;;;;;23.02;73.66;99615.56;5001100;28;20199;-92
2023/08/25 04:41:15;;;;;;;13.60;7.03;;;;;;;23.20;73.53;99629.63;5019125;28;20045;-89
2023/08/25 04:43:40;;;;;;;14.23;5.85;;;;;;;23.24;72.92;99600.66;5019823;28;20056;-89
2023/08/25 04:46:07;;;;;;;8.15;4.82;;;;;;;23.31;72.97;99610.06;5018831;28;20041;-88
2023/08/25 04:48:33;;;;;;;14.15;6.18;;;;;;;23.44;72.93;99631.59;5015809;28;20025;-88
2023/08/25 04:50:58;;;;;;;14.02;6.43;;;;;;;23.49;72.88;99637.50;5013592;28;20108;-88
2023/08/25 04:53:23;;;;;;;8.50;5.47;;;;;;;23.34;72.92;99601.78;5009826;28;20116;-90
2023/08/25 04:55:49;;;;;;;8.95;5.70;;;;;;;23.64;72.64;99635.56;5014075;28;20034;-94
2023/08/25 04:58:16;;;;;;;10.30;4.70;;;;;;;23.72;71.94;99613.50;4992416;28;20026;-87
2023/08/25 05:00:42;;;;;;;10.18;5.10;;;;;;;23.94;71.67;99626.31;5011434;28;20065;-88
2023/08/25 05:03:08;;;;;;;8.20;4.97;;;;;;;24.03;70.80;99605.94;5011561;28;20064;-89
2023/08/25 05:05:34;;;;;;;12.52;5.57;;;;;;;24.22;70.14;99624.31;5010586;28;20508;-88
2023/08/25 05:07:59;;;;;;;8.35;5.10;;;;;;;24.16;69.97;99603.19;5012299;28;20026;-88
2023/08/25 05:10:25;;;;;;;8.45;6.32;;;;;;;24.45;69.50;99625.31;5012645;28;20123;-89
2023/08/25 05:12:50;;;;;;;11.70;5.70;;;;;;;24.60;68.58;99602.63;5012642;28;20056;-90
2023/08/25 05:15:16;;;;;;;8.40;3.88;;;;;;;24.94;67.92;99648.66;5009358;28;20566;-88
2023/08/25 05:17:41;;;;;;;8.57;5.10;;;;;;;24.88;67.62;99632.94;5012675;28;20389;-88
2023/08/25 05:20:08;;;;;;;6.47;4.80;;;;;;;24.96;67.00;99635.03;5010719;28;20038;-88
2023/08/25 05:22:34;;;;;;;9.90;4.25;;;;;;;24.95;65.67;99609.91;4994224;28;20037;-89
2023/08/25 05:25:00;;;;;;;7.07;3.75;;;;;;;25.28;64.76;99632.56;5010611;28;20034;-90
2023/08/25 05:27:25;;;;;;;8.68;4.55;;;;;;;25.47;64.30;99645.56;5011965;28;20030;-90
2023/08/25 05:29:51;;;;;;;5.65;3.92;;;;;;;25.52;64.06;99648.75;5011403;28;20049;-90
2023/08/25 05:32:16;;;;;;;10.77;4.13;;;;;;;25.47;64.47;99650.97;5012053;28;20022;-89
2023/08/25 05:34:41;;;;;;;7.65;4.38;;;;;;;25.93;64.08;99676.16;5012038;28;20038;-89
2023/08/25 05:37:07;;;;;;;11.45;5.88;;;;;;;26.07;63.08;99661.59;5010498;28;20120;-92
2023/08/25 05:39:33;;;;;;;9.23;3.38;;;;;;;26.24;62.11;99654.81;4993932;28;20183;-91
2023/08/25 05:41:58;;;;;;;11.30;4.25;;;;;;;26.44;60.93;99672.97;4994463;28;20057;-92
2023/08/25 05:44:23;;;;;;;5.07;3.35;;;;;;;26.29;60.71;99666.13;4993215;28;20046;-91
2023/08/25 05:46:49;;;;;;;7.57;4.40;;;;;;;26.46;60.51;99651.22;5011984;28;20034;-91
2023/08/25 05:49:15;;;;;;;6.53;3.60;;;;;;;26.74;60.06;99679.59;4994075;28;20030;-91
2023/08/25 05:51:40;;;;;;;5.25;3.58;;;;;;;26.84;58.81;99657.19;5010832;28;20034;-89
2023/08/25 05:54:06;;;;;;;7.90;4.82;;;;;;;27.05;59.18;99668.03;4993483;28;20032;-91
2023/08/25 05:56:31;;;;;;;7.10;4.45;;;;;;;27.21;58.06;99649.50;4993807;28;20025;-90
2023/08/25 05:59:00;;;;;;;9.05;4.90;;;;;;;27.46;57.70;99669.94;5011484;28;20026;-90
2023/08/25 06:01:25;;;;;;;9.60;5.57;;;;;;;27.87;57.38;99692.59;5011248;28;20033;-88
2023/08/25 06:03:51;;;;;;;8.68;4.90;;;;;;;27.97;56.60;99662.84;5011289;28;20029;-89
2023/08/25 06:06:16;;;;;;;8.63;5.72;;;;;;;28.30;56.01;99696.13;5010194;28;20038;-88
2023/08/25 06:08:42;;;;;;;14.32;9.00;;;;;;;28.36;55.72;99705.53;5010793;28;20121;-88
2023/08/25 06:11:07;;;;;;;7.35;5.05;;;;;;;28.13;56.08;99669.63;5010469;28;20144;-88
2023/08/25 06:13:33;;;;;;;10.65;5.95;;;;;;;28.71;55.33;99705.09;5010408;28;20120;-90
2023/08/25 06:15:59;;;;;;;8.27;4.63;;;;;;;28.63;54.30;99661.53;4992253;28;20158;-88
2023/08/25 06:18:24;;;;;;;5.85;3.85;;;;;;;28.96;54.26;99689.28;5009942;28;20026;-86
2023/08/25 06:20:50;;;;;;;5.25;3.78;;;;;;;28.65;53.78;99681.25;5010318;28;20026;-87
2023/08/25 06:23:16;;;;;;;8.82;4.55;;;;;;;28.94;53.32;99692.16;5009915;28;20040;-88
2023/08/25 06:25:43;;;;;;;6.07;4.63;;;;;;;28.80;52.77;99638.28;5009602;28;20029;-88
2023/08/25 06:28:09;;;;;;;5.53;4.22;;;;;;;29.35;53.63;99691.19;5010379;28;20057;-88
2023/08/25 06:30:36;;;;;;;5.50;4.03;;;;;;;29.38;50.88;99633.84;5010361;28;20481;-87
2023/08/25 06:33:01;;;;;;;8.00;3.90;;;;;;;29.74;49.62;99659.38;5009535;28;20032;-87
2023/08/25 06:35:27;;;;;;;6.72;3.95;;;;;;;29.73;49.10;99646.78;5009712;28;20025;-87
2023/08/25 06:37:53;;;;;;;6.70;4.22;;;;;;;29.98;49.99;99682.50;5009134;28;20076;-89
2023/08/25 06:40:18;;;;;;;5.10;3.10;;;;;;;30.27;48.13;99668.78;5009715;28;20515;-88
2023/08/25 06:42:44;;;;;;;7.75;4.22;;;;;;;30.55;47.94;99657.06;5009958;28;20050;-89
2023/08/25 06:45:09;;;;;;;6.80;3.95;;;;;;;30.83;47.11;99675.09;5009502;28;20100;-89
2023/08/25 06:47:36;;;;;;;6.35;3.55;;;;;;;31.10;46.72;99658.84;5007772;28;20408;-88
2023/08/25 06:50:02;;;;;;;6.25;3.80;;;;;;;31.28;46.66;99675.16;5009530;28;20141;-87
2023/08/25 06:52:28;;;;;;;7.15;4.38;;;;;;;31.56;46.68;99679.53;5009755;28;20156;-87
2023/08/25 06:54:53;;;;;;;5.93;3.25;;;;;;;31.73;46.15;99664.13;5009568;28;20033;-85
2023/08/25 06:57:19;;;;;;;8.25;4.25;;;;;;;31.78;45.11;99677.28;5008352;28;20119;-88
2023/08/25 06:59:44;;;;;;;10.70;4.25;;;;;;;31.91;44.18;99655.88;4992550;28;20026;-88
2023/08/25 07:02:10;;;;;;;7.97;4.18;;;;;;;32.01;43.18;99687.63;4989716;28;20460;-87
2023/08/25 07:04:35;;;;;;;7.93;4.75;;;;;;;31.86;44.84;99669.16;4990085;28;20049;-87
2023/08/25 07:07:01;;;;;;;7.47;4.20;;;;;;;31.85;43.83;99636.59;4990472;28;20058;-87
2023/08/25 07:09:28;;;;;;;6.18;4.03;;;;;;;32.15;43.81;99635.25;4984707;28;20030;-86
2023/08/25 07:11:54;;;;;;;10.30;3.47;;;;;;;32.48;43.10;99668.09;5009821;28;20500;-87
2023/08/25 07:14:19;;;;;;;6.07;4.28;;;;;;;32.78;42.30;99672.16;5009897;28;20034;-86
2023/08/25 07:16:45;;;;;;;6.43;2.95;;;;;;;33.05;41.79;99680.22;5007276;28;20028;-87
2023/08/25 07:19:10;;;;;;;6.07;3.67;;;;;;;33.10;41.67;99683.28;4992425;28;20100;-87
2023/08/25 07:21:37;;;;;;;6.22;4.03;;;;;;;33.17;40.11;99667.94;5009147;28;20026;-87
2023/08/25 07:24:02;;;;;;;8.90;3.50;;;;;;;32.77;40.60;99669.59;5009671;28;20038;-87
2023/08/25 07:26:28;;;;;;;6.90;3.83;;;;;;;32.92;40.21;99646.06;5008925;28;20048;-87
2023/08/25 07:28:53;;;;;;;6.40;3.25;;;;;;;33.04;41.53;99646.56;5009963;28;20038;-88
2023/08/25 07:31:19;;;;;;;6.43;3.85;;;;;;;33.10;40.28;99634.13;4992563;28;20030;-87
2023/08/25 07:33:45;;;;;;;6.40;4.00;;;;;;;33.32;39.59;99630.72;5008939;28;20033;-87
2023/08/25 07:36:10;;;;;;;6.70;3.00;;;;;;;33.55;39.35;99624.53;5009664;28;20096;-87
2023/08/25 07:38:36;;;;;;;6.43;3.53;;;;;;;33.73;38.31;99651.72;4992198;28;20516;-87
2023/08/25 07:41:01;;;;;;;6.15;4.20;;;;;;;33.70;39.77;99641.94;5009887;28;20030;-87
2023/08/25 07:43:27;;;;;;;6.90;4.00;;;;;;;33.46;39.32;99639.25;5009144;28;20050;-88
2023/08/25 07:45:54;;;;;;;7.72;3.97;;;;;;;33.70;39.32;99652.88;5000927;28;20034;-87
2023/08/25 07:48:20;;;;;;;4.60;3.63;;;;;;;33.41;40.66;99637.03;5004430;28;20044;-88
2023/08/25 07:50:45;;;;;;;6.00;3.40;;;;;;;33.85;38.36;99646.75;5009648;28;20108;-87
2023/08/25 07:53:13;;;;;;;8.45;4.05;;;;;;;34.11;39.08;99641.00;5009579;28;20139;-88
2023/08/25 07:55:39;;;;;;;6.82;3.45;;;;;;;34.41;37.39;99650.28;5008812;28;20029;-87
2023/08/25 07:58:06;;;;;;;5.22;3.35;;;;;;;34.14;36.58;99605.06;5009524;28;20061;-87
2023/08/25 08:00:32;;;;;;;5.47;3.03;;;;;;;33.87;37.57;99644.66;5009388;28;20092;-87
2023/08/25 08:02:58;;;;;;;8.68;4.65;;;;;;;33.45;37.50;99619.25;5009244;28;20040;-88
2023/08/25 08:05:23;;;;;;;6.80;3.47;;;;;;;33.85;37.50;99619.38;5008384;28;20030;-88
2023/08/25 08:07:49;;;;;;;6.10;3.85;;;;;;;34.37;36.78;99639.88;5007910;28;20045;-88
2023/08/25 08:10:15;;;;;;;7.25;5.15;;;;;;;34.44;36.22;99619.81;5009083;28;20105;-87
2023/08/25 08:12:42;;;;;;;8.20;4.85;;;;;;;34.49;36.06;99634.88;5008914;28;20026;-88
2023/08/25 08:15:08;;;;;;;7.28;3.85;;;;;;;34.58;36.40;99655.69;5009185;28;20030;-87
2023/08/25 08:17:34;;;;;;;9.02;4.75;;;;;;;34.91;35.68;99617.16;5007411;28;20042;-87
2023/08/25 08:20:00;;;;;;;5.85;3.78;;;;;;;35.06;34.90;99623.53;5008881;28;20507;-88
2023/08/25 08:22:27;;;;;;;5.47;3.83;;;;;;;34.64;37.56;99635.81;5008977;28;20129;-88
2023/08/25 08:24:53;;;;;;;8.75;4.72;;;;;;;34.37;36.71;99639.88;5009105;28;20061;-89
2023/08/25 08:27:20;;;;;;;7.93;4.07;;;;;;;34.29;36.44;99631.72;5008463;28;20052;-88
2023/08/25 08:29:47;;;;;;;6.10;3.65;;;;;;;33.69;37.47;99612.03;5006138;28;20041;-90
2023/08/25 08:32:13;;;;;;;6.18;3.38;;;;;;;34.60;35.78;99632.56;5006593;28;20029;-88
2023/08/25 08:34:39;;;;;;;30.65;4.53;;;;;;;35.17;35.14;99614.03;5011561;28;20041;-89
2023/08/25 08:37:08;;;;;;;11.70;4.47;;;;;;;35.24;35.09;99597.72;5012211;28;20049;-88
2023/08/25 08:39:33;;;;;;;5.80;3.38;;;;;;;35.25;36.18;99594.78;5011852;28;20055;-89
2023/08/25 08:42:02;;;;;;;5.35;3.85;;;;;;;35.51;34.58;99609.97;5011133;28;20030;-88
2023/08/25 08:44:29;;;;;;;5.78;3.70;;;;;;;35.28;34.29;99580.72;4994559;28;20132;-88
2023/08/25 08:46:57;;;;;;;6.70;4.20;;;;;;;34.69;35.55;99585.97;5012606;28;20488;-86
2023/08/25 08:49:24;;;;;;;8.52;4.63;;;;;;;34.94;35.09;99587.50;5010926;28;20029;-86
2023/08/25 08:51:50;;;;;;;7.75;5.28;;;;;;;34.97;36.73;99600.84;5011929;28;20065;-87
2023/08/25 08:54:19;;;;;;;3.78;3.33;;;;;;;35.28;36.46;99613.63;4995043;28;20034;-85
2023/08/25 08:56:46;;;;;;;6.03;3.53;;;;;;;34.79;37.24;99609.38;4995564;28;20033;-87
2023/08/25 08:59:12;;;;;;;4.65;3.15;;;;;;;35.09;36.99;99603.13;5012216;28;20034;-87
2023/08/25 09:01:38;;;;;;;4.90;4.15;;;;;;;34.99;35.63;99606.16;5012260;28;20073;-85
2023/08/25 09:04:08;;;;;;;6.78;4.15;;;;;;;35.14;35.80;99617.13;5011083;28;20412;-86
2023/08/25 09:06:35;;;;;;;5.63;3.25;;;;;;;34.94;35.38;99595.72;5012196;28;20065;-86
2023/08/25 09:09:08;;;;;;;8.40;3.40;;;;;;;34.72;34.73;99537.13;5012007;28;20041;-85
2023/08/25 09:11:35;;;;;;;5.80;3.40;;;;;;;35.02;34.79;99585.72;5011499;28;20061;-86
2023/08/25 09:14:04;;;;;;;6.40;3.67;;;;;;;35.42;34.28;99594.63;5012214;28;20531;-86
2023/08/25 09:16:33;;;;;;;9.52;4.53;;;;;;;35.62;36.21;99600.41;4994395;28;20563;-86
2023/08/25 09:19:02;;;;;;;10.00;4.63;;;;;;;35.68;35.83;99564.88;5012639;28;20037;-89
2023/08/25 09:21:28;;;;;;;13.95;4.78;;;;;;;35.75;34.69;99572.34;5010814;28;20129;-88
2023/08/25 09:23:59;;;;;;;6.75;4.10;;;;;;;35.41;34.96;99532.63;5010414;28;20064;-87
2023/08/25 09:26:26;;;;;;;7.47;4.13;;;;;;;35.18;34.46;99541.72;5011362;28;20125;-87
2023/08/25 09:28:57;;;;;;;8.55;4.85;;;;;;;35.02;36.33;99555.59;4993970;28;20389;-89
2023/08/25 09:31:28;;;;;;;7.45;4.05;;;;;;;35.04;35.54;99581.78;4988999;28;20137;-90
2023/08/25 09:34:02;;;;;;;4.93;3.60;;;;;;;34.67;37.29;99550.53;4991639;28;20056;-88
2023/08/25 09:36:29;;;;;;;8.05;4.38;;;;;;;34.26;37.73;99567.22;4993802;28;20416;-89
2023/08/25 09:38:54;;;;;;;3.75;2.42;;;;;;;34.36;37.29;99528.69;5011123;28;20026;-92
2023/08/25 09:41:29;;;;;;;8.23;4.65;;;;;;;34.42;36.07;99555.34;5011127;28;20523;-87
2023/08/25 09:43:59;;;;;;;7.38;4.53;;;;;;;34.52;36.30;99552.38;5009540;28;20084;-87
2023/08/25 09:46:30;;;;;;;6.68;4.57;;;;;;;34.92;36.33;99551.22;5011647;28;20088;-87
2023/08/25 09:49:07;;;;;;;7.50;4.95;;;;;;;35.20;35.26;99536.06;5010669;28;20121;-87
2023/08/25 09:51:41;;;;;;;7.38;4.45;;;;;;;35.39;34.88;99552.00;4993051;28;20117;-88
2023/08/25 09:54:13;;;;;;;6.95;3.90;;;;;;;34.78;35.23;99532.84;5007410;28;20104;-89
2023/08/25 09:56:43;;;;;;;5.43;3.28;;;;;;;34.82;34.89;99514.16;4991476;28;20100;-89
2023/08/25 09:59:10;;;;;;;4.85;3.00;;;;;;;35.04;34.98;99528.88;5008652;28;20029;-87
2023/08/25 10:01:39;;;;;;;8.40;4.32;;;;;;;34.97;33.94;99490.38;5010578;28;20061;-87
2023/08/25 10:04:05;;;;;;;5.65;3.08;;;;;;;35.40;34.07;99514.47;5007711;28;20030;-88
2023/08/25 10:06:32;;;;;;;4.97;2.95;;;;;;;35.82;33.51;99522.06;5003174;28;20033;-88
2023/08/25 10:08:59;;;;;;;5.03;3.13;;;;;;;35.61;32.60;99476.16;4991170;28;20543;-88
2023/08/25 10:11:34;;;;;;;9.55;4.40;;;;;;;35.64;32.09;99472.19;4994488;28;20064;-87
2023/08/25 10:14:02;;;;;;;5.22;3.42;;;;;;;36.02;32.86;99519.56;5000295;28;20030;-84
2023/08/25 10:16:30;;;;;;;4.32;3.03;;;;;;;35.98;32.58;99503.66;5006239;28;20040;-86
2023/08/25 10:19:01;;;;;;;5.53;3.20;;;;;;;35.88;32.99;99525.06;5009276;28;20476;-90
2023/08/25 10:21:30;;;;;;;4.88;3.20;;;;;;;35.83;33.08;99482.56;4997642;28;20080;-89
2023/08/25 10:24:01;;;;;;;3.85;2.92;;;;;;;35.93;31.50;99481.41;4999934;28;20121;-88
2023/08/25 10:26:27;;;;;;;4.57;2.80;;;;;;;36.00;31.99;99460.41;4988399;28;20030;-87
2023/08/25 10:28:53;;;;;;;5.20;3.15;;;;;;;35.70;31.41;99471.44;5001550;28;20144;-87
2023/08/25 10:31:19;;;;;;;5.80;2.95;;;;;;;35.82;32.04;99496.47;5010018;28;20041;-88
2023/08/25 10:33:49;;;;;;;4.20;2.60;;;;;;;36.05;30.81;99485.38;5010617;28;20034;-89
2023/08/25 10:36:19;;;;;;;6.78;2.58;;;;;;;35.89;31.48;99482.88;5008542;28;20120;-87
2023/08/25 10:38:54;;;;;;;4.85;2.80;;;;;;;35.95;30.92;99493.91;4997821;28;20108;-89
2023/08/25 10:41:20;;;;;;;;;;;;;;;36.09;30.49;99494.06;4989643;28;20049;-88
2023/08/25 10:43:54;;;;;;;5.28;2.72;;;;;;;36.05;30.74;99479.03;4990452;28;20463;-89
2023/08/25 10:46:22;;;;;;;3.70;2.75;;;;;;;35.85;30.69;99463.19;4971679;28;20049;-90
2023/08/25 10:48:51;;;;;;;4.00;2.60;;;;;;;36.10;31.16;99485.66;5001925;28;20068;-88
2023/08/25 10:51:20;;;;;;;5.43;2.83;;;;;;;35.88;32.17;99475.66;4989554;28;20034;-88
2023/08/25 10:53:50;;;;;;;3.58;2.55;;;;;;;35.87;30.93;99469.34;4989618;28;20034;-87
2023/08/25 10:56:26;;;;;;;4.53;3.22;;;;;;;35.56;30.54;99420.19;4988403;28;20027;-88
2023/08/25 10:58:55;;;;;;;4.93;2.50;;;;;;;35.27;30.94;99433.75;4996082;28;20057;-87
2023/08/25 11:01:27;;;;;;;3.25;2.35;;;;;;;35.57;31.21;99447.41;4998074;28;20080;-89
2023/08/25 11:04:07;;;;;;;5.80;2.38;;;;;;;35.61;29.57;99440.50;4989830;28;20442;-88
2023/08/25 11:06:40;;;;;;;7.60;2.97;;;;;;;35.79;29.03;99440.13;4989002;28;20034;-89
2023/08/25 11:09:31;;;;;;;5.80;2.38;;;;;;;36.11;29.82;99462.63;4993796;28;20439;-89
2023/08/25 11:11:59;;;;;;;4.53;2.40;;;;;;;35.48;29.55;99408.28;4976212;28;20031;-88
2023/08/25 11:14:31;;;;;;;4.80;2.63;;;;;;;35.80;30.08;99428.09;4971954;28;20030;-90
2023/08/25 11:16:58;;;;;;;2.55;2.33;;;;;;;35.89;29.57;99392.34;5006869;28;20519;-91
2023/08/25 11:19:26;;;;;;;4.68;3.40;;;;;;;36.11;29.68;99413.22;4987866;28;20034;-89
2023/08/25 11:22:01;;;;;;;3.38;2.00;;;;;;;36.11;29.04;99448.06;4989561;28;20022;-88
2023/08/25 11:24:29;;;;;;;4.43;3.03;;;;;;;35.93;29.16;99415.56;4988736;28;20031;-90
2023/08/25 11:27:03;;;;;;;5.22;3.58;;;;;;;35.66;29.17;99402.38;4990100;28;20107;-90
2023/08/25 11:29:29;;;;;;;4.47;2.50;;;;;;;35.68;28.53;99437.84;5004209;28;20544;-91
2023/08/25 11:31:54;;;;;;;2.65;1.92;;;;;;;35.70;28.25;99427.53;4988939;28;20039;-88
2023/08/25 11:34:21;;;;;;;4.47;2.92;;;;;;;35.75;29.06;99414.09;4977379;28;20042;-90